MAPA DE AEROPUERTO

INFORMACIÓN METAR y TAF


Deprecated: The each() function is deprecated. This message will be suppressed on further calls in /home/customer/www/clickair-va.com/public_html/VAM/vam/helpers/get_metar.php on line 20
METAR FOR BIBD
ADDS - METARS form results

(1936 UTC 26 January 2023)
Data provider http://aviationweather.gov/metar/data/
 
Forecast for: BIBD (BILDUDALUR , IS)
Text: TAF BIBD 261309Z 2614/2617 18028G40KT 9999 -RADZ BKN018
Forecast period: 1400 to 1500 UTC 26 January 2023
Forecast type: FROM: standard forecast or significant change
Winds: from the S (180 degrees) at 32 MPH (28 knots; 14.4 m/s)
gusting to 46 MPH (40 knots; 20.6 m/s)
Visibility: 6 or more miles (10+ km)
Ceiling: 1800 feet AGL
Clouds: broken clouds at 1800 feet AGL
Weather: -RA -DZ  (light rain, light drizzle)
Text: BECMG 2615/2617 20015G25KT -SHRA
Forecast period: 1500 to 1700 UTC 26 January 2023
Forecast type: BECOMING: Conditions expected to become as follows by 1700 UTC 26 January 2023
Winds: from the SSW (200 degrees) at 17 MPH (15 knots; 7.7 m/s)
gusting to 29 MPH (25 knots; 12.9 m/s)
Visibility: 6 or more miles (10+ km)
Ceiling: 1800 feet AGL
Clouds: broken clouds at 1800 feet AGL
Weather: -SHRA  (light rain showers)